createdAt,value
2018-09-22T00:01:42.709Z,12.80
2018-09-22T00:04:10.872Z,12.80
2018-09-22T00:06:39.051Z,12.70
2018-09-22T00:09:08.595Z,12.60
2018-09-22T00:11:36.983Z,12.60
2018-09-22T00:14:05.146Z,12.60
2018-09-22T00:16:33.294Z,12.60
2018-09-22T00:19:01.451Z,12.60
2018-09-22T00:21:29.640Z,12.70
2018-09-22T00:23:57.851Z,12.70
2018-09-22T00:26:26.002Z,12.70
2018-09-22T00:28:54.163Z,12.70
2018-09-22T00:31:22.616Z,12.60
2018-09-22T00:33:50.770Z,12.60
2018-09-22T00:36:18.935Z,12.70
2018-09-22T00:38:47.122Z,12.60
2018-09-22T00:41:15.278Z,12.50
2018-09-22T00:43:43.450Z,12.50
2018-09-22T00:46:11.960Z,12.50
2018-09-22T00:48:40.175Z,12.40
2018-09-22T00:51:08.332Z,12.40
2018-09-22T00:53:36.508Z,12.30
2018-09-22T00:56:04.677Z,12.30
2018-09-22T00:58:32.924Z,12.30
2018-09-22T01:01:01.028Z,12.20
2018-09-22T01:03:29.468Z,12.20
2018-09-22T01:05:57.627Z,12.10
2018-09-22T01:08:25.783Z,12.10
2018-09-22T01:10:53.976Z,12.10
2018-09-22T01:13:22.110Z,12.20
2018-09-22T01:15:50.426Z,12.10
2018-09-22T01:18:18.558Z,12.00
2018-09-22T01:20:46.677Z,12.00
2018-09-22T01:23:14.915Z,11.90
2018-09-22T01:25:43.065Z,11.90
2018-09-22T01:28:11.222Z,11.90
2018-09-22T01:30:39.370Z,11.90
2018-09-22T01:33:07.521Z,11.80
2018-09-22T01:35:35.717Z,11.80
2018-09-22T01:38:03.886Z,11.80
2018-09-22T01:40:32.093Z,11.80
2018-09-22T01:43:00.264Z,11.80
2018-09-22T01:45:28.569Z,11.80
2018-09-22T01:47:56.782Z,11.90
2018-09-22T01:50:25.050Z,11.90
2018-09-22T01:52:53.497Z,11.90
2018-09-22T01:55:21.650Z,11.90
2018-09-22T01:57:49.796Z,11.90
2018-09-22T02:00:17.974Z,11.90
2018-09-22T02:02:46.170Z,11.90
2018-09-22T02:05:14.305Z,11.90
2018-09-22T02:07:42.458Z,11.90
2018-09-22T02:10:10.610Z,11.80
2018-09-22T02:12:38.800Z,11.80
2018-09-22T02:15:07.212Z,11.80
2018-09-22T02:17:35.379Z,11.80
2018-09-22T02:20:03.548Z,11.70
2018-09-22T02:22:31.997Z,11.70
2018-09-22T02:25:00.217Z,11.60
2018-09-22T02:27:28.386Z,11.50
2018-09-22T02:29:56.581Z,11.40
2018-09-22T02:32:24.750Z,11.40
2018-09-22T02:34:52.902Z,11.40
2018-09-22T02:37:21.293Z,11.30
2018-09-22T02:39:49.469Z,11.30
2018-09-22T02:42:17.638Z,11.20
2018-09-22T02:44:45.790Z,11.10
2018-09-22T02:47:13.957Z,11.10
2018-09-22T02:49:42.116Z,11.00
2018-09-22T02:52:10.259Z,11.00
2018-09-22T02:54:38.410Z,10.90
2018-09-22T02:57:06.569Z,10.80
2018-09-22T02:59:34.758Z,10.80
2018-09-22T03:02:03.003Z,10.80
2018-09-22T03:04:31.172Z,10.80
2018-09-22T03:06:59.413Z,10.80
2018-09-22T03:09:27.517Z,10.80
2018-09-22T03:11:56.739Z,10.70
2018-09-22T03:14:24.905Z,10.70
2018-09-22T03:16:53.084Z,10.70
2018-09-22T03:19:21.233Z,10.60
2018-09-22T03:21:49.380Z,10.60
2018-09-22T03:24:17.546Z,10.50
2018-09-22T03:26:45.701Z,10.50
2018-09-22T03:29:13.865Z,10.50
2018-09-22T03:31:42.026Z,10.40
2018-09-22T03:34:10.181Z,10.40
2018-09-22T03:36:38.332Z,10.40
2018-09-22T03:39:07.981Z,10.40
2018-09-22T03:41:36.102Z,10.30
2018-09-22T03:44:04.246Z,10.30
2018-09-22T03:46:32.409Z,10.30
2018-09-22T03:49:00.576Z,10.20
2018-09-22T03:51:28.739Z,10.20
2018-09-22T03:53:56.882Z,10.10
2018-09-22T03:56:25.042Z,10.10
2018-09-22T03:58:53.204Z,10.00
2018-09-22T04:01:21.358Z,10.00
2018-09-22T04:03:49.506Z,10.00
2018-09-22T04:06:17.664Z,10.00
2018-09-22T04:08:45.856Z,10.00
2018-09-22T04:11:13.993Z,9.90
2018-09-22T04:13:42.162Z,9.90
2018-09-22T04:16:17.807Z,9.90
2018-09-22T04:18:45.957Z,9.80
2018-09-22T04:21:14.128Z,9.80
2018-09-22T04:23:42.273Z,9.80
2018-09-22T04:26:10.445Z,9.80
2018-09-22T04:28:38.600Z,9.80
2018-09-22T04:31:06.736Z,9.70
2018-09-22T04:33:34.892Z,9.70
2018-09-22T04:36:03.070Z,9.70
2018-09-22T04:38:31.221Z,9.60
2018-09-22T04:40:59.388Z,9.60
2018-09-22T04:43:27.771Z,9.60
2018-09-22T04:45:55.965Z,9.70
2018-09-22T04:48:24.129Z,9.70
2018-09-22T04:50:52.314Z,9.70
2018-09-22T04:53:20.502Z,9.70
2018-09-22T04:55:48.671Z,9.70
2018-09-22T04:58:16.934Z,9.70
2018-09-22T05:00:45.299Z,9.70
2018-09-22T05:03:15.633Z,9.70
2018-09-22T05:05:43.790Z,9.80
2018-09-22T05:08:11.943Z,9.70
2018-09-22T05:10:40.101Z,9.70
2018-09-22T05:13:08.260Z,9.60
2018-09-22T05:15:36.519Z,9.50
2018-09-22T05:18:04.690Z,9.50
2018-09-22T05:20:32.874Z,9.40
2018-09-22T05:23:01.065Z,9.30
2018-09-22T05:25:29.234Z,9.20
2018-09-22T05:27:57.561Z,9.20
2018-09-22T05:30:25.774Z,9.10
2018-09-22T05:32:53.977Z,9.10
2018-09-22T05:35:22.136Z,9.10
2018-09-22T05:37:50.627Z,9.10
2018-09-22T05:40:18.758Z,9.00
2018-09-22T05:42:46.906Z,9.00
2018-09-22T05:45:15.082Z,9.00
2018-09-22T05:47:43.257Z,9.00
2018-09-22T05:50:11.396Z,9.10
2018-09-22T05:52:39.606Z,9.10
2018-09-22T05:55:07.781Z,9.20
2018-09-22T05:57:36.537Z,9.30
2018-09-22T06:00:04.681Z,9.40
2018-09-22T06:02:32.903Z,9.50
2018-09-22T06:05:01.053Z,9.60
2018-09-22T06:07:29.305Z,9.60
2018-09-22T06:09:57.465Z,9.70
2018-09-22T06:12:25.645Z,9.80
2018-09-22T06:14:53.793Z,9.90
2018-09-22T06:17:21.935Z,9.90
2018-09-22T06:19:50.285Z,10.00
2018-09-22T06:22:18.478Z,10.10
2018-09-22T06:24:46.726Z,10.20
2018-09-22T06:27:14.909Z,10.40
2018-09-22T06:29:43.102Z,10.50
2018-09-22T06:32:11.284Z,10.70
2018-09-22T06:34:39.449Z,10.90
2018-09-22T06:37:07.609Z,11.00
2018-09-22T06:39:35.765Z,11.30
2018-09-22T06:42:03.944Z,11.40
2018-09-22T06:44:32.109Z,11.60
2018-09-22T06:47:00.306Z,11.80
2018-09-22T06:49:28.497Z,11.90
2018-09-22T06:51:56.749Z,12.00
2018-09-22T06:54:26.206Z,12.10
2018-09-22T06:56:54.401Z,12.20
2018-09-22T06:59:22.550Z,12.30
2018-09-22T07:01:50.705Z,12.50
2018-09-22T07:04:18.865Z,12.60
2018-09-22T07:06:47.102Z,12.80
2018-09-22T07:09:15.383Z,13.00
2018-09-22T07:11:44.003Z,13.10
2018-09-22T07:14:12.245Z,13.30
2018-09-22T07:16:40.406Z,13.50
2018-09-22T07:19:08.557Z,13.70
2018-09-22T07:21:41.921Z,13.90
2018-09-22T07:24:10.231Z,14.00
2018-09-22T07:26:38.397Z,14.10
2018-09-22T07:29:06.527Z,14.30
2018-09-22T07:31:34.767Z,14.30
2018-09-22T07:34:03.134Z,14.50
2018-09-22T07:36:31.368Z,14.50
2018-09-22T07:38:59.631Z,14.60
2018-09-22T07:41:29.347Z,14.60
2018-09-22T07:43:59.412Z,14.70
2018-09-22T07:46:29.847Z,14.90
2018-09-22T07:48:58.267Z,15.00
2018-09-22T07:51:28.857Z,15.10
2018-09-22T07:54:09.074Z,15.10
2018-09-22T07:56:38.303Z,15.20
2018-09-22T07:59:06.971Z,15.20
2018-09-22T08:01:35.411Z,15.20
2018-09-22T08:04:04.039Z,15.40
2018-09-22T08:06:34.879Z,15.70
2018-09-22T08:09:03.348Z,15.90
2018-09-22T08:11:34.612Z,16.20
2018-09-22T08:14:03.456Z,16.40
2018-09-22T08:16:31.891Z,16.40
2018-09-22T08:19:00.371Z,16.40
2018-09-22T08:21:28.593Z,16.30
2018-09-22T08:23:56.830Z,16.50
2018-09-22T08:26:24.997Z,16.60
2018-09-22T08:28:53.425Z,16.80
2018-09-22T08:31:21.549Z,17.00
2018-09-22T08:33:49.724Z,17.20
2018-09-22T08:36:18.018Z,17.30
2018-09-22T08:38:46.117Z,17.50
2018-09-22T08:41:14.350Z,17.80
2018-09-22T08:43:42.683Z,18.20
2018-09-22T08:46:10.879Z,18.30
2018-09-22T08:48:39.230Z,18.20
2018-09-22T08:51:07.600Z,18.20
2018-09-22T08:53:36.178Z,18.30
2018-09-22T08:56:04.365Z,18.40
2018-09-22T08:58:32.554Z,18.40
2018-09-22T09:01:00.803Z,18.40
2018-09-22T09:03:28.996Z,18.50
2018-09-22T09:05:57.306Z,18.70
2018-09-22T09:08:25.476Z,18.90
2018-09-22T09:10:53.655Z,18.90
2018-09-22T09:13:22.002Z,18.80
2018-09-22T09:15:50.460Z,18.60
2018-09-22T09:18:18.610Z,18.60
2018-09-22T09:20:47.429Z,18.70
2018-09-22T09:23:15.970Z,18.70
2018-09-22T09:25:44.224Z,18.80
2018-09-22T09:28:12.415Z,18.90
2018-09-22T09:30:40.796Z,19.00
2018-09-22T09:33:08.965Z,19.10
2018-09-22T09:35:39.242Z,19.20
2018-09-22T09:38:07.518Z,19.40
2018-09-22T09:40:35.741Z,19.70
2018-09-22T09:43:03.973Z,19.90
2018-09-22T09:45:32.323Z,20.10
2018-09-22T09:48:00.478Z,20.40
2018-09-22T09:50:28.791Z,20.40
2018-09-22T09:52:57.182Z,20.40
2018-09-22T09:55:25.370Z,20.40
2018-09-22T09:57:53.514Z,20.40
2018-09-22T10:00:27.081Z,20.40
2018-09-22T10:02:55.217Z,20.40
2018-09-22T10:05:23.350Z,20.50
2018-09-22T10:07:51.493Z,20.60
2018-09-22T10:10:21.682Z,20.70
2018-09-22T10:12:49.852Z,21.10
2018-09-22T10:15:18.086Z,21.10
2018-09-22T10:17:46.436Z,21.40
2018-09-22T10:20:14.781Z,21.50
2018-09-22T10:22:42.910Z,21.40
2018-09-22T10:25:11.102Z,21.30
2018-09-22T10:27:39.482Z,21.50
2018-09-22T10:30:07.818Z,21.60
2018-09-22T10:32:36.069Z,21.70
2018-09-22T10:35:04.245Z,21.90
2018-09-22T10:37:32.983Z,22.20
2018-09-22T10:40:01.238Z,22.20
2018-09-22T10:42:29.408Z,22.10
2018-09-22T10:44:57.636Z,21.90
2018-09-22T10:47:25.819Z,21.80
2018-09-22T10:49:54.252Z,21.70
2018-09-22T10:52:22.485Z,21.70
2018-09-22T10:54:50.921Z,22.00
2018-09-22T10:57:19.073Z,22.40
2018-09-22T10:59:47.245Z,22.60
2018-09-22T11:02:15.393Z,22.80
2018-09-22T11:04:43.555Z,22.90
2018-09-22T11:07:12.042Z,23.10
2018-09-22T11:09:40.249Z,23.20
2018-09-22T11:12:08.390Z,23.10
2018-09-22T11:14:36.597Z,23.40
2018-09-22T11:17:04.785Z,23.20
2018-09-22T11:19:32.930Z,23.40
2018-09-22T11:22:01.086Z,23.50
2018-09-22T11:24:29.210Z,23.40
2018-09-22T11:26:57.518Z,23.60
2018-09-22T11:29:25.603Z,23.90
2018-09-22T11:31:53.761Z,24.10
2018-09-22T11:34:22.001Z,24.10
2018-09-22T11:36:50.172Z,24.40
2018-09-22T11:39:18.346Z,24.50
2018-09-22T11:41:48.038Z,24.70
2018-09-22T11:44:16.229Z,24.80
2018-09-22T11:46:44.369Z,24.70
2018-09-22T11:49:12.500Z,24.90
2018-09-22T11:51:40.681Z,24.90
2018-09-22T11:54:08.870Z,24.90
2018-09-22T11:56:37.126Z,25.20
2018-09-22T11:59:05.414Z,25.60
2018-09-22T12:01:33.587Z,25.60
2018-09-22T12:04:01.814Z,25.60
2018-09-22T12:06:30.291Z,25.60
2018-09-22T12:08:58.393Z,25.80
2018-09-22T12:11:26.614Z,25.90
2018-09-22T12:13:54.798Z,25.90
2018-09-22T12:16:22.922Z,25.90
2018-09-22T12:18:51.331Z,25.50
2018-09-22T12:21:19.689Z,25.30
2018-09-22T12:23:47.830Z,25.50
2018-09-22T12:26:16.321Z,25.80
2018-09-22T12:28:44.582Z,25.80
2018-09-22T12:31:12.786Z,26.00
2018-09-22T12:33:40.975Z,26.20
2018-09-22T12:36:09.187Z,26.30
2018-09-22T12:38:37.357Z,26.00
2018-09-22T12:41:05.812Z,25.60
2018-09-22T12:43:34.004Z,25.40
2018-09-22T12:46:02.191Z,25.30
2018-09-22T12:48:30.488Z,24.90
2018-09-22T12:50:58.649Z,24.80
2018-09-22T12:53:26.825Z,24.50
2018-09-22T12:55:54.953Z,24.10
2018-09-22T12:58:23.189Z,24.00
2018-09-22T13:00:51.457Z,23.90
2018-09-22T13:03:19.621Z,23.50
2018-09-22T13:05:47.795Z,23.40
2018-09-22T13:08:15.997Z,23.60
2018-09-22T13:10:44.126Z,23.90
2018-09-22T13:13:12.350Z,24.20
2018-09-22T13:15:40.517Z,24.50
2018-09-22T13:18:08.685Z,24.50
2018-09-22T13:20:36.862Z,24.60
2018-09-22T13:23:05.277Z,24.80
2018-09-22T13:25:33.445Z,24.90
2018-09-22T13:28:01.586Z,24.80
2018-09-22T13:30:29.774Z,24.20
2018-09-22T13:32:57.981Z,24.10
2018-09-22T13:35:26.166Z,23.90
2018-09-22T13:37:54.413Z,23.80
2018-09-22T13:40:22.836Z,23.80
2018-09-22T13:42:51.722Z,23.80
2018-09-22T13:45:20.130Z,23.80
2018-09-22T13:47:49.439Z,23.60
2018-09-22T13:50:17.603Z,23.40
2018-09-22T13:52:45.970Z,23.20
2018-09-22T13:55:14.170Z,23.10
2018-09-22T13:57:42.671Z,23.00
2018-09-22T14:00:10.828Z,22.90
2018-09-22T14:02:39.042Z,23.00
2018-09-22T14:05:07.298Z,23.00
2018-09-22T14:07:35.508Z,23.00
2018-09-22T14:10:03.891Z,23.00
2018-09-22T14:12:32.163Z,23.00
2018-09-22T14:15:00.494Z,23.10
2018-09-22T14:17:28.657Z,23.10
2018-09-22T14:19:56.859Z,23.00
2018-09-22T14:22:25.109Z,22.90
2018-09-22T14:24:53.325Z,22.90
2018-09-22T14:27:21.558Z,22.80
2018-09-22T14:29:49.848Z,22.80
2018-09-22T14:32:18.118Z,22.70
2018-09-22T14:34:48.466Z,22.40
2018-09-22T14:37:16.665Z,22.30
2018-09-22T14:39:44.969Z,22.10
2018-09-22T14:42:13.264Z,21.90
2018-09-22T14:44:41.518Z,21.70
2018-09-22T14:47:09.707Z,21.50
2018-09-22T14:49:42.292Z,21.40
2018-09-22T14:52:10.486Z,21.30
2018-09-22T14:54:38.700Z,21.20
2018-09-22T14:57:07.542Z,21.00
2018-09-22T14:59:35.691Z,20.70
2018-09-22T15:02:03.981Z,20.60
2018-09-22T15:04:32.276Z,20.60
2018-09-22T15:07:00.457Z,20.70
2018-09-22T15:09:28.598Z,20.80
2018-09-22T15:11:56.783Z,20.90
2018-09-22T15:14:25.000Z,21.00
2018-09-22T15:16:53.177Z,21.00
2018-09-22T15:19:22.455Z,20.90
2018-09-22T15:21:50.637Z,20.80
2018-09-22T15:24:18.817Z,20.50
2018-09-22T15:26:47.109Z,20.40
2018-09-22T15:29:15.343Z,20.30
2018-09-22T15:31:43.702Z,20.20
2018-09-22T15:34:11.912Z,20.20
2018-09-22T15:36:40.161Z,20.10
2018-09-22T15:39:24.500Z,20.00
2018-09-22T15:41:52.778Z,19.90
2018-09-22T15:44:21.001Z,19.90
2018-09-22T15:46:49.298Z,19.80
2018-09-22T15:49:17.529Z,19.70
2018-09-22T15:51:45.722Z,19.50
2018-09-22T15:54:13.861Z,19.30
2018-09-22T15:56:42.295Z,19.20
2018-09-22T15:59:10.512Z,19.00
2018-09-22T16:01:38.861Z,18.90
2018-09-22T16:04:07.128Z,18.80
2018-09-22T16:06:35.449Z,18.70
2018-09-22T16:09:05.100Z,18.60
2018-09-22T16:11:33.372Z,18.50
2018-09-22T16:14:01.549Z,18.40
2018-09-22T16:16:30.829Z,18.30
2018-09-22T16:18:59.241Z,18.30
2018-09-22T16:21:27.478Z,18.30
2018-09-22T16:23:55.666Z,18.20
2018-09-22T16:26:23.946Z,18.20
2018-09-22T16:28:52.143Z,18.20
2018-09-22T16:31:20.334Z,18.10
2018-09-22T16:33:48.557Z,18.00
2018-09-22T16:36:16.885Z,17.80
2018-09-22T16:38:45.138Z,17.70
2018-09-22T16:41:13.431Z,17.60
2018-09-22T16:43:41.586Z,17.50
2018-09-22T16:46:10.214Z,17.50
2018-09-22T16:48:40.210Z,17.40
2018-09-22T16:51:08.473Z,17.30
2018-09-22T16:53:36.720Z,17.20
2018-09-22T16:56:04.902Z,17.00
2018-09-22T16:58:34.292Z,16.80
2018-09-22T17:01:02.444Z,16.60
2018-09-22T17:03:30.648Z,16.30
2018-09-22T17:05:58.952Z,16.00
2018-09-22T17:08:27.323Z,15.90
2018-09-22T17:10:55.602Z,15.60
2018-09-22T17:13:24.099Z,15.40
2018-09-22T17:15:52.475Z,15.10
2018-09-22T17:18:20.730Z,15.00
2018-09-22T17:20:48.986Z,14.80
2018-09-22T17:23:17.498Z,14.60
2018-09-22T17:25:45.683Z,14.40
2018-09-22T17:28:13.862Z,14.30
2018-09-22T17:30:42.064Z,14.10
2018-09-22T17:33:10.225Z,14.00
2018-09-22T17:35:39.823Z,13.90
2018-09-22T17:38:08.062Z,13.90
2018-09-22T17:40:36.249Z,13.80
2018-09-22T17:43:04.540Z,13.70
2018-09-22T17:45:32.771Z,13.70
2018-09-22T17:48:00.930Z,13.70
2018-09-22T17:50:29.183Z,13.70
2018-09-22T17:52:57.410Z,13.60
2018-09-22T17:55:25.654Z,13.50
2018-09-22T17:57:53.870Z,13.60
2018-09-22T18:00:22.063Z,13.60
2018-09-22T18:02:50.226Z,13.60
2018-09-22T18:05:18.410Z,13.50
2018-09-22T18:07:46.578Z,13.50
2018-09-22T18:10:14.826Z,13.50
2018-09-22T18:12:43.007Z,13.50
2018-09-22T18:15:11.190Z,13.50
2018-09-22T18:17:39.401Z,13.50
2018-09-22T18:20:07.717Z,13.60
2018-09-22T18:22:35.877Z,13.60
2018-09-22T18:25:04.068Z,13.50
2018-09-22T18:27:32.232Z,13.50
2018-09-22T18:30:00.441Z,13.50
2018-09-22T18:32:28.812Z,13.50
2018-09-22T18:34:56.958Z,13.50
2018-09-22T18:37:25.148Z,13.50
2018-09-22T18:39:53.234Z,13.50
2018-09-22T18:42:21.418Z,13.50
2018-09-22T18:44:49.662Z,13.50
2018-09-22T18:47:17.889Z,13.50
2018-09-22T18:49:46.034Z,13.50
2018-09-22T18:52:14.272Z,13.50
2018-09-22T18:54:42.446Z,13.50
2018-09-22T18:57:10.565Z,13.50
2018-09-22T18:59:38.870Z,13.40
2018-09-22T19:02:07.117Z,13.40
2018-09-22T19:04:35.361Z,13.30
2018-09-22T19:07:03.557Z,13.20
2018-09-22T19:09:31.817Z,13.20
2018-09-22T19:12:00.458Z,13.10
2018-09-22T19:15:35.621Z,13.10
2018-09-22T19:18:09.304Z,13.00
2018-09-22T19:20:55.602Z,12.90
2018-09-22T19:23:36.294Z,13.00
2018-09-22T19:26:09.813Z,12.90
2018-09-22T19:28:41.818Z,12.90
2018-09-22T19:31:13.596Z,12.80
2018-09-22T19:33:48.051Z,12.80
2018-09-22T19:36:23.315Z,12.70
2018-09-22T19:38:55.843Z,12.70
2018-09-22T19:41:28.436Z,12.70
2018-09-22T19:44:01.714Z,12.60
2018-09-22T19:46:40.257Z,12.60
2018-09-22T19:49:14.016Z,12.50
2018-09-22T19:51:45.741Z,12.50
2018-09-22T19:54:13.901Z,12.40
2018-09-22T19:56:42.071Z,12.40
2018-09-22T19:59:10.209Z,12.30
2018-09-22T20:01:38.363Z,12.30
2018-09-22T20:04:07.018Z,12.30
2018-09-22T20:06:35.187Z,12.30
2018-09-22T20:09:04.689Z,12.30
2018-09-22T20:11:32.974Z,12.30
2018-09-22T20:14:01.189Z,12.40
2018-09-22T20:16:29.435Z,12.40
2018-09-22T20:18:57.605Z,12.50
2018-09-22T20:21:25.734Z,12.50
2018-09-22T20:23:54.052Z,12.50
2018-09-22T20:26:22.244Z,12.50
2018-09-22T20:28:50.363Z,12.40
2018-09-22T20:31:18.497Z,12.50
2018-09-22T20:33:46.637Z,12.40
2018-09-22T20:36:14.796Z,12.50
2018-09-22T20:38:42.926Z,12.60
2018-09-22T20:41:11.062Z,12.60
2018-09-22T20:43:39.254Z,12.60
2018-09-22T20:46:07.410Z,12.60
2018-09-22T20:48:35.575Z,12.60
2018-09-22T20:51:03.705Z,12.70
2018-09-22T20:53:32.027Z,12.70
2018-09-22T20:56:01.118Z,12.70
2018-09-22T20:58:29.304Z,12.70
2018-09-22T21:00:57.710Z,12.70
2018-09-22T21:03:25.870Z,12.70
2018-09-22T21:05:54.029Z,12.70
2018-09-22T21:08:22.413Z,12.70
2018-09-22T21:10:51.710Z,12.70
2018-09-22T21:13:19.919Z,12.70
2018-09-22T21:15:48.572Z,12.70
2018-09-22T21:18:16.762Z,12.70
2018-09-22T21:20:44.963Z,12.70
2018-09-22T21:23:13.325Z,12.70
2018-09-22T21:25:41.613Z,12.70
2018-09-22T21:28:09.745Z,12.60
2018-09-22T21:30:38.082Z,12.60
2018-09-22T21:33:06.173Z,12.60
2018-09-22T21:35:34.413Z,12.60
2018-09-22T21:38:02.565Z,12.70
2018-09-22T21:40:30.727Z,12.70
2018-09-22T21:42:58.850Z,12.70
2018-09-22T21:45:27.130Z,12.60
2018-09-22T21:47:55.285Z,12.60
2018-09-22T21:50:23.421Z,12.60
2018-09-22T21:52:51.654Z,12.60
2018-09-22T21:55:19.937Z,12.60
2018-09-22T21:57:48.062Z,12.60
2018-09-22T22:00:16.235Z,12.60
2018-09-22T22:02:44.595Z,12.50
2018-09-22T22:05:12.715Z,12.50
2018-09-22T22:07:40.872Z,12.60
2018-09-22T22:10:09.033Z,12.60
2018-09-22T22:12:37.170Z,12.50
2018-09-22T22:15:05.335Z,12.50
2018-09-22T22:17:33.465Z,12.50
2018-09-22T22:20:01.608Z,12.50
2018-09-22T22:22:29.955Z,12.50
2018-09-22T22:24:58.067Z,12.50
2018-09-22T22:27:26.174Z,12.50
2018-09-22T22:29:54.334Z,12.50
2018-09-22T22:32:22.452Z,12.50
2018-09-22T22:34:50.681Z,12.50
2018-09-22T22:37:18.830Z,12.40
2018-09-22T22:39:47.006Z,12.40
2018-09-22T22:42:15.182Z,12.40
2018-09-22T22:44:43.327Z,12.40
2018-09-22T22:47:11.452Z,12.40
2018-09-22T22:49:39.569Z,12.40
2018-09-22T22:52:07.944Z,12.40
2018-09-22T22:54:36.065Z,12.40
2018-09-22T22:57:04.189Z,12.40
2018-09-22T22:59:32.329Z,12.40
2018-09-22T23:02:00.890Z,12.30
2018-09-22T23:04:29.041Z,12.30
2018-09-22T23:06:57.145Z,12.30
2018-09-22T23:09:25.287Z,12.30
2018-09-22T23:11:53.447Z,12.20
2018-09-22T23:14:21.586Z,12.20
2018-09-22T23:16:49.737Z,12.20
2018-09-22T23:19:17.854Z,12.20
2018-09-22T23:21:45.987Z,12.20
2018-09-22T23:24:14.109Z,12.10
2018-09-22T23:26:42.227Z,12.10
2018-09-22T23:29:10.366Z,12.10
2018-09-22T23:31:38.497Z,12.10
2018-09-22T23:34:06.639Z,12.10
2018-09-22T23:36:35.577Z,12.10
2018-09-22T23:39:03.799Z,12.10
2018-09-22T23:41:31.917Z,12.10
2018-09-22T23:44:00.204Z,12.10
2018-09-22T23:46:28.318Z,12.10
2018-09-22T23:48:56.450Z,12.10
2018-09-22T23:51:24.585Z,12.10
2018-09-22T23:53:52.710Z,12.10
2018-09-22T23:56:20.854Z,12.10
2018-09-22T23:58:49.013Z,12.10
